Time;durP1;ratioP1;P1;durP2;ratioP2;P2;SDS_P1;SDS_P2;PMS_P1;PMS_P2;Temp;Humidity;BMP_temperature;BMP_pressure;BME280_temperature;BME280_humidity;BME280_pressure;Samples;Min_cycle;Max_cycle;Signal;HPM_P1;HPM_P2
2023/12/17 00:02:07;;;;;;;6.30;5.17;;;21.30;56.40;;;;;;5093917;28;20177;-67
2023/12/17 00:04:33;;;;;;;6.13;5.10;;;21.30;56.40;;;;;;5094078;28;20177;-69
2023/12/17 00:06:59;;;;;;;7.40;5.23;;;21.30;56.40;;;;;;5093600;28;20201;-67
2023/12/17 00:09:25;;;;;;;5.93;4.90;;;21.30;56.40;;;;;;5093778;28;20170;-68
2023/12/17 00:11:50;;;;;;;7.87;5.90;;;21.30;56.40;;;;;;5093689;28;20395;-67
2023/12/17 00:14:16;;;;;;;6.27;5.30;;;21.30;56.40;;;;;;5093583;28;20769;-69
2023/12/17 00:16:42;;;;;;;5.97;4.60;;;21.30;56.40;;;;;;5093821;28;20201;-68
2023/12/17 00:19:07;;;;;;;6.53;5.13;;;21.30;56.40;;;;;;5093342;28;20682;-69
2023/12/17 00:21:33;;;;;;;6.00;5.27;;;21.30;56.40;;;;;;5093406;28;20181;-68
2023/12/17 00:23:59;;;;;;;6.50;5.43;;;21.30;56.40;;;;;;5093258;28;20458;-68
2023/12/17 00:26:24;;;;;;;6.57;5.10;;;21.30;56.40;;;;;;5093314;28;20242;-68
2023/12/17 00:28:50;;;;;;;8.97;5.53;;;21.30;56.40;;;;;;5093286;28;20673;-68
2023/12/17 00:31:16;;;;;;;5.70;3.97;;;21.30;56.40;;;;;;5093163;28;20282;-68
2023/12/17 00:33:41;;;;;;;7.83;5.00;;;21.30;56.40;;;;;;5091641;28;20189;-69
2023/12/17 00:36:07;;;;;;;6.83;5.10;;;21.30;56.40;;;;;;5093186;28;20217;-68
2023/12/17 00:38:33;;;;;;;5.87;4.80;;;21.30;56.40;;;;;;5093495;28;20173;-68
2023/12/17 00:40:59;;;;;;;7.87;4.60;;;21.20;56.40;;;;;;5093068;28;20416;-68
2023/12/17 00:43:24;;;;;;;5.50;5.00;;;21.20;56.40;;;;;;5092880;28;20208;-69
2023/12/17 00:45:50;;;;;;;8.50;5.30;;;21.30;56.40;;;;;;5091262;28;20332;-69
2023/12/17 00:48:15;;;;;;;5.20;4.70;;;21.20;56.40;;;;;;5092857;28;20724;-68
2023/12/17 00:50:41;;;;;;;6.20;4.80;;;21.30;56.40;;;;;;5093029;28;20178;-69
2023/12/17 00:53:06;;;;;;;6.40;4.67;;;21.20;56.40;;;;;;5092880;28;20545;-68
2023/12/17 00:55:32;;;;;;;5.90;5.03;;;21.20;56.40;;;;;;5092753;28;20249;-68
2023/12/17 00:57:58;;;;;;;7.97;4.93;;;21.20;56.50;;;;;;5091384;28;20723;-68
2023/12/17 01:00:23;;;;;;;5.00;4.03;;;21.20;56.40;;;;;;5092727;28;20269;-69
2023/12/17 01:02:49;;;;;;;6.90;5.00;;;21.20;56.40;;;;;;5091077;28;20599;-68
2023/12/17 01:05:14;;;;;;;6.87;4.57;;;21.20;56.40;;;;;;5092488;28;20257;-70
2023/12/17 01:07:40;;;;;;;6.20;4.60;;;21.20;56.40;;;;;;5092428;28;20208;-69
2023/12/17 01:10:06;;;;;;;5.20;4.60;;;21.20;56.40;;;;;;5092355;28;20170;-68
2023/12/17 01:12:32;;;;;;;7.03;5.20;;;21.20;56.40;;;;;;5092363;28;20177;-69
2023/12/17 01:14:58;;;;;;;5.90;4.63;;;21.20;56.40;;;;;;5092503;28;20772;-69
2023/12/17 01:17:23;;;;;;;7.23;4.93;;;21.20;56.40;;;;;;5092190;28;20759;-68
2023/12/17 01:19:49;;;;;;;6.93;4.70;;;21.20;56.40;;;;;;5092343;28;20228;-68
2023/12/17 01:22:14;;;;;;;6.13;4.83;;;21.20;56.40;;;;;;5092163;28;20277;-69
2023/12/17 01:24:41;;;;;;;5.57;4.97;;;21.20;56.40;;;;;;5092125;28;20239;-68
2023/12/17 01:27:07;;;;;;;8.83;5.80;;;21.10;56.30;;;;;;5092069;28;20197;-68
2023/12/17 01:29:32;;;;;;;7.37;5.40;;;21.10;56.40;;;;;;5092022;28;20399;-69
2023/12/17 01:31:58;;;;;;;6.37;4.70;;;21.20;56.50;;;;;;5091960;28;20174;-68
2023/12/17 01:34:24;;;;;;;6.00;4.60;;;21.20;56.50;;;;;;5092224;28;20180;-68
2023/12/17 01:36:50;;;;;;;5.37;4.30;;;21.10;56.40;;;;;;5091814;28;20205;-68
2023/12/17 01:39:16;;;;;;;5.57;3.67;;;21.20;56.50;;;;;;5091852;28;20472;-68
2023/12/17 01:41:42;;;;;;;7.20;5.17;;;21.10;56.40;;;;;;5091804;28;20975;-68
2023/12/17 01:44:08;;;;;;;6.07;4.20;;;21.20;56.50;;;;;;5092060;28;20451;-67
2023/12/17 01:46:34;;;;;;;4.93;4.33;;;21.10;56.40;;;;;;5091676;28;20510;-68
2023/12/17 01:49:00;;;;;;;5.77;4.47;;;21.20;56.50;;;;;;5091782;28;20170;-69
2023/12/17 01:51:26;;;;;;;6.83;4.50;;;21.20;56.50;;;;;;5091919;28;20404;-68
2023/12/17 01:53:52;;;;;;;7.23;4.43;;;21.10;56.40;;;;;;5091530;28;20408;-69
2023/12/17 01:56:18;;;;;;;5.43;4.80;;;21.10;56.40;;;;;;5091467;28;20432;-69
2023/12/17 01:58:44;;;;;;;7.10;4.97;;;21.10;56.40;;;;;;5090920;28;20416;-67
2023/12/17 02:01:11;;;;;;;6.27;4.83;;;21.10;56.40;;;;;;5091471;28;20410;-68
2023/12/17 02:03:37;;;;;;;8.67;4.63;;;21.10;56.40;;;;;;5091309;28;20565;-69
2023/12/17 02:06:06;;;;;;;5.87;4.27;;;21.10;56.40;;;;;;5091217;28;20558;-68
2023/12/17 02:08:32;;;;;;;5.07;3.97;;;21.10;56.40;;;;;;5091549;28;20174;-67
2023/12/17 02:10:57;;;;;;;5.20;3.97;;;21.10;56.40;;;;;;5091169;28;20822;-68
2023/12/17 02:13:23;;;;;;;5.60;4.80;;;21.10;56.40;;;;;;5089835;28;20182;-69
2023/12/17 02:15:49;;;;;;;5.37;4.20;;;21.10;56.40;;;;;;5091094;28;20299;-69
2023/12/17 02:18:14;;;;;;;7.40;4.67;;;21.10;56.40;;;;;;5091017;28;20266;-67
2023/12/17 02:20:43;;;;;;;4.13;3.73;;;21.10;56.40;;;;;;5091111;28;20181;-69
2023/12/17 02:23:08;;;;;;;4.70;3.90;;;21.10;56.40;;;;;;5091001;28;20676;-69
2023/12/17 02:25:34;;;;;;;5.90;4.10;;;21.10;56.40;;;;;;5091044;28;20408;-68
2023/12/17 02:27:59;;;;;;;5.40;3.90;;;21.10;56.40;;;;;;5090927;28;20193;-68
2023/12/17 02:30:25;;;;;;;5.50;4.50;;;21.10;56.40;;;;;;5091156;28;20178;-68
2023/12/17 02:32:51;;;;;;;4.70;3.93;;;21.10;57.00;;;;;;5090758;28;20184;-69
2023/12/17 02:35:17;;;;;;;6.10;4.20;;;21.10;56.40;;;;;;5089532;28;20181;-68
2023/12/17 02:37:43;;;;;;;5.40;4.50;;;21.10;56.40;;;;;;5090653;28;20431;-69
2023/12/17 02:40:09;;;;;;;5.30;4.17;;;21.10;56.40;;;;;;5090827;28;20195;-69
2023/12/17 02:42:34;;;;;;;5.37;4.03;;;21.10;56.40;;;;;;5090796;28;20236;-68
2023/12/17 02:45:00;;;;;;;5.20;4.07;;;21.10;56.40;;;;;;5090669;28;21011;-69
2023/12/17 02:47:25;;;;;;;4.93;3.77;;;21.10;56.40;;;;;;5090599;28;20190;-68
2023/12/17 02:49:51;;;;;;;4.90;3.70;;;21.10;56.40;;;;;;5090720;28;20172;-69
2023/12/17 02:52:18;;;;;;;6.23;4.77;;;21.10;56.50;;;;;;5090667;28;20216;-68
2023/12/17 02:54:44;;;;;;;4.93;4.27;;;21.10;56.40;;;;;;5090590;28;20170;-69
2023/12/17 02:57:09;;;;;;;4.10;3.70;;;21.10;56.50;;;;;;5090420;28;20431;-69
2023/12/17 02:59:35;;;;;;;7.00;5.37;;;21.10;56.50;;;;;;5090404;28;20222;-69
2023/12/17 03:02:01;;;;;;;6.10;4.60;;;21.10;56.50;;;;;;5090347;28;20170;-68
2023/12/17 03:04:26;;;;;;;5.17;4.10;;;21.10;56.50;;;;;;5090336;28;20177;-68
2023/12/17 03:06:52;;;;;;;5.57;4.17;;;21.10;56.50;;;;;;5090299;28;20190;-69
2023/12/17 03:09:17;;;;;;;5.20;4.33;;;21.10;56.50;;;;;;5090223;28;20189;-69
2023/12/17 03:11:43;;;;;;;5.73;4.07;;;21.10;56.50;;;;;;5090372;28;20184;-69
2023/12/17 03:14:09;;;;;;;5.20;4.17;;;21.10;56.40;;;;;;5090636;28;20257;-68
2023/12/17 03:16:34;;;;;;;4.87;3.63;;;21.10;56.50;;;;;;5090216;28;20675;-68
2023/12/17 03:19:00;;;;;;;4.87;4.37;;;21.10;56.50;;;;;;5090034;28;20190;-68
2023/12/17 03:21:29;;;;;;;4.30;3.90;;;21.10;56.50;;;;;;5090246;28;20173;-69
2023/12/17 03:23:54;;;;;;;6.20;3.73;;;21.10;56.40;;;;;;5090155;28;20726;-69
2023/12/17 03:26:21;;;;;;;6.47;3.97;;;21.10;56.40;;;;;;5090236;28;20451;-68
2023/12/17 03:28:46;;;;;;;4.83;3.60;;;21.10;56.40;;;;;;5090118;28;20170;-69
2023/12/17 03:31:16;;;;;;;4.43;3.93;;;21.10;56.40;;;;;;5088983;28;20415;-68
2023/12/17 03:33:42;;;;;;;6.00;4.60;;;21.10;56.40;;;;;;5076660;28;20178;-69
2023/12/17 03:36:08;;;;;;;5.33;4.17;;;21.10;56.50;;;;;;5070228;28;20523;-68
2023/12/17 03:38:34;;;;;;;5.03;4.00;;;21.10;56.50;;;;;;5068767;28;20520;-69
2023/12/17 03:40:59;;;;;;;5.53;3.90;;;21.10;56.40;;;;;;5067998;28;20428;-70
2023/12/17 03:43:25;;;;;;;5.73;4.60;;;21.10;56.40;;;;;;5069640;28;20285;-68
2023/12/17 03:45:51;;;;;;;4.40;3.70;;;21.10;56.40;;;;;;5068299;28;20198;-68
2023/12/17 03:48:17;;;;;;;4.70;4.27;;;21.10;56.40;;;;;;5069767;28;20174;-68
2023/12/17 03:50:42;;;;;;;6.90;3.97;;;21.10;56.50;;;;;;5069877;28;20163;-68
2023/12/17 03:53:10;;;;;;;4.60;3.57;;;21.10;56.40;;;;;;5069776;28;20469;-69
2023/12/17 03:55:37;;;;;;;4.73;3.10;;;21.10;56.40;;;;;;5069681;28;20174;-68
2023/12/17 03:58:03;;;;;;;4.50;3.73;;;21.10;56.50;;;;;;5069799;28;20769;-68
2023/12/17 04:00:29;;;;;;;5.50;3.73;;;21.10;56.50;;;;;;5069748;28;20948;-69
2023/12/17 04:02:54;;;;;;;6.53;4.17;;;21.10;56.50;;;;;;5069764;28;20491;-68
2023/12/17 04:05:20;;;;;;;4.60;3.60;;;21.10;56.50;;;;;;5069841;28;20700;-69
2023/12/17 04:07:45;;;;;;;4.53;3.73;;;21.10;56.50;;;;;;5069618;28;20217;-68
2023/12/17 04:10:11;;;;;;;4.33;3.90;;;21.00;56.40;;;;;;5068190;28;20196;-69
2023/12/17 04:12:36;;;;;;;5.00;3.70;;;21.00;56.40;;;;;;5069722;28;20178;-69
2023/12/17 04:15:02;;;;;;;5.53;3.30;;;21.10;56.50;;;;;;5069629;28;20171;-68
2023/12/17 04:17:29;;;;;;;4.63;4.10;;;21.10;56.50;;;;;;5069608;28;20560;-68
2023/12/17 04:19:55;;;;;;;4.67;3.77;;;21.10;56.50;;;;;;5069832;28;20170;-68
2023/12/17 04:22:20;;;;;;;4.30;3.13;;;21.00;56.40;;;;;;5073190;28;20939;-69
2023/12/17 04:24:46;;;;;;;4.83;3.50;;;21.00;56.40;;;;;;5073529;28;20182;-68
2023/12/17 04:27:12;;;;;;;6.67;3.20;;;21.00;56.40;;;;;;5073105;28;20265;-69
2023/12/17 04:29:37;;;;;;;3.90;3.57;;;21.10;56.50;;;;;;5073111;28;20711;-69
2023/12/17 04:32:03;;;;;;;3.80;3.03;;;21.00;56.40;;;;;;5073076;28;20205;-68
2023/12/17 04:34:29;;;;;;;4.23;3.67;;;21.00;56.40;;;;;;5073043;28;20202;-68
2023/12/17 04:36:59;;;;;;;5.20;4.10;;;21.10;56.50;;;;;;5073044;28;20432;-68
2023/12/17 04:39:28;;;;;;;5.20;3.97;;;21.10;56.50;;;;;;5072835;28;20514;-69
2023/12/17 04:41:54;;;;;;;3.80;3.20;;;21.00;56.40;;;;;;5073086;28;20824;-69
2023/12/17 04:44:19;;;;;;;5.00;3.73;;;21.00;56.40;;;;;;5072684;28;20471;-68
2023/12/17 04:46:45;;;;;;;4.70;2.97;;;21.10;56.50;;;;;;5072613;28;20221;-68
2023/12/17 04:49:10;;;;;;;5.23;3.97;;;21.10;56.50;;;;;;5072771;28;20733;-69
2023/12/17 04:51:36;;;;;;;4.37;3.27;;;21.10;56.50;;;;;;5072674;28;20253;-69
2023/12/17 04:54:02;;;;;;;3.60;3.30;;;21.10;56.50;;;;;;5072909;28;20182;-68
2023/12/17 04:56:27;;;;;;;5.27;3.83;;;21.00;56.40;;;;;;5072702;28;20225;-69
2023/12/17 04:58:53;;;;;;;6.20;4.17;;;21.00;56.40;;;;;;5072703;28;20656;-69
2023/12/17 05:01:19;;;;;;;4.50;3.97;;;21.10;56.50;;;;;;5072429;28;20255;-69
2023/12/17 05:03:44;;;;;;;5.27;3.30;;;21.10;56.50;;;;;;5072411;28;20568;-69
2023/12/17 05:06:10;;;;;;;4.83;3.80;;;21.00;56.40;;;;;;5072415;28;20186;-69
2023/12/17 05:08:35;;;;;;;3.70;3.27;;;21.10;56.50;;;;;;5072301;28;20178;-69
2023/12/17 05:11:01;;;;;;;4.90;4.03;;;21.00;56.40;;;;;;5072412;28;20169;-69
2023/12/17 05:13:27;;;;;;;3.93;3.37;;;21.10;56.50;;;;;;5070972;28;20261;-67
2023/12/17 05:15:52;;;;;;;4.20;3.80;;;21.10;56.50;;;;;;5072188;28;20194;-69
2023/12/17 05:18:18;;;;;;;3.93;3.50;;;21.10;56.50;;;;;;5072148;28;20186;-69
2023/12/17 05:20:45;;;;;;;4.20;3.30;;;21.10;56.50;;;;;;5072004;28;20181;-68
2023/12/17 05:23:12;;;;;;;4.20;3.70;;;21.10;56.50;;;;;;5071987;28;20570;-68
2023/12/17 05:25:39;;;;;;;3.70;2.93;;;21.00;56.40;;;;;;5071931;28;20424;-69
2023/12/17 05:28:04;;;;;;;4.07;3.60;;;21.10;56.50;;;;;;5072047;28;20424;-68
2023/12/17 05:30:30;;;;;;;3.97;2.87;;;21.00;56.40;;;;;;5072138;28;20401;-68
2023/12/17 05:32:56;;;;;;;4.23;3.83;;;21.00;56.40;;;;;;5070690;28;20178;-68
2023/12/17 05:35:21;;;;;;;4.20;3.40;;;21.00;56.40;;;;;;5071956;28;20178;-68
2023/12/17 05:37:47;;;;;;;4.10;3.70;;;21.00;56.40;;;;;;5071742;28;20699;-68
2023/12/17 05:40:13;;;;;;;3.60;2.93;;;21.00;56.40;;;;;;5071871;28;20174;-68
2023/12/17 05:42:38;;;;;;;4.03;3.60;;;21.00;56.40;;;;;;5071666;28;20198;-68
2023/12/17 05:45:04;;;;;;;4.40;3.60;;;21.00;56.40;;;;;;5071715;28;20198;-68
2023/12/17 05:47:30;;;;;;;3.70;3.13;;;21.00;56.40;;;;;;5071758;28;20710;-68
2023/12/17 05:49:56;;;;;;;3.07;2.77;;;21.00;56.40;;;;;;5071628;28;20416;-68
2023/12/17 05:52:21;;;;;;;3.80;3.00;;;21.00;56.40;;;;;;5071516;28;20166;-68
2023/12/17 05:54:47;;;;;;;3.90;3.50;;;21.00;56.40;;;;;;5071641;28;20171;-68
2023/12/17 05:57:13;;;;;;;3.90;3.50;;;21.00;56.40;;;;;;5071633;28;20203;-69
2023/12/17 05:59:38;;;;;;;4.33;2.90;;;21.00;56.40;;;;;;5071346;28;20167;-68
2023/12/17 06:02:04;;;;;;;4.17;3.37;;;21.00;56.40;;;;;;5071224;28;20170;-69
2023/12/17 06:04:30;;;;;;;4.30;2.90;;;21.00;56.50;;;;;;5071398;28;20202;-69
2023/12/17 06:06:55;;;;;;;3.93;2.87;;;21.00;56.40;;;;;;5071122;28;20926;-69
2023/12/17 06:09:22;;;;;;;5.43;3.83;;;21.00;56.50;;;;;;5071039;28;20228;-69
2023/12/17 06:11:49;;;;;;;3.53;2.90;;;21.00;56.40;;;;;;5069746;28;20171;-69
2023/12/17 06:14:16;;;;;;;3.33;2.93;;;21.00;56.50;;;;;;5071064;28;20417;-69
2023/12/17 06:16:44;;;;;;;4.20;3.80;;;21.00;56.50;;;;;;5070852;28;20447;-69
2023/12/17 06:19:10;;;;;;;4.07;3.00;;;21.00;56.40;;;;;;5070793;28;20456;-68
2023/12/17 06:21:39;;;;;;;3.13;2.83;;;21.00;56.40;;;;;;5070882;28;20416;-69
2023/12/17 06:24:05;;;;;;;3.77;3.43;;;21.00;56.50;;;;;;5070777;28;20484;-69
2023/12/17 06:26:31;;;;;;;4.70;3.10;;;21.10;56.50;;;;;;5070819;28;21112;-68
2023/12/17 06:28:57;;;;;;;4.03;2.97;;;21.10;56.60;;;;;;5070857;28;20254;-68
2023/12/17 06:31:24;;;;;;;4.27;3.30;;;21.00;56.40;;;;;;5090563;28;20823;-69
2023/12/17 06:33:53;;;;;;;3.90;3.00;;;21.10;56.50;;;;;;5090851;28;20514;-69
2023/12/17 06:36:19;;;;;;;3.20;2.50;;;21.00;56.40;;;;;;5090930;28;20458;-69
2023/12/17 06:38:44;;;;;;;3.77;3.00;;;21.10;56.50;;;;;;5089484;28;20407;-68
2023/12/17 06:41:10;;;;;;;3.00;2.80;;;21.10;56.50;;;;;;5090928;28;20184;-69
2023/12/17 06:43:36;;;;;;;4.13;3.27;;;21.10;56.50;;;;;;5090400;28;20194;-69
2023/12/17 06:46:06;;;;;;;3.27;2.77;;;21.10;56.50;;;;;;5090550;28;20193;-69
2023/12/17 06:48:35;;;;;;;4.47;3.60;;;21.10;56.50;;;;;;5089384;28;20172;-69
2023/12/17 06:51:02;;;;;;;5.00;3.50;;;21.10;56.50;;;;;;5091102;28;20789;-68
2023/12/17 06:53:28;;;;;;;3.10;2.80;;;21.10;56.50;;;;;;5090709;28;20498;-68
2023/12/17 06:55:53;;;;;;;4.90;3.40;;;21.10;56.50;;;;;;5090694;28;20575;-68
2023/12/17 06:58:20;;;;;;;3.43;3.00;;;21.10;56.50;;;;;;5090773;28;20420;-68
2023/12/17 07:00:45;;;;;;;4.10;3.70;;;21.10;56.50;;;;;;5090507;28;20725;-69
2023/12/17 07:03:11;;;;;;;3.03;2.43;;;21.10;56.40;;;;;;5090475;28;20483;-69
2023/12/17 07:05:37;;;;;;;3.13;2.60;;;21.10;56.40;;;;;;5089090;28;20169;-67
2023/12/17 07:08:02;;;;;;;3.43;2.57;;;21.10;56.40;;;;;;5090345;28;20400;-68
2023/12/17 07:10:28;;;;;;;3.50;2.73;;;21.10;56.40;;;;;;5089048;28;20209;-68
2023/12/17 07:12:54;;;;;;;3.47;2.87;;;21.10;56.40;;;;;;5090337;28;20184;-69
2023/12/17 07:15:19;;;;;;;3.50;3.20;;;21.10;56.40;;;;;;5090387;28;20184;-67
2023/12/17 07:17:45;;;;;;;4.83;4.07;;;21.10;56.40;;;;;;5089565;28;20309;-68
2023/12/17 07:20:10;;;;;;;3.67;2.80;;;21.10;56.30;;;;;;5089779;28;20273;-68
2023/12/17 07:22:36;;;;;;;3.40;2.70;;;21.10;56.30;;;;;;5089846;28;20193;-69
2023/12/17 07:25:03;;;;;;;3.93;3.00;;;21.10;56.30;;;;;;5090295;28;20193;-69
2023/12/17 07:27:28;;;;;;;2.90;2.60;;;21.10;56.30;;;;;;5089162;28;20707;-68
2023/12/17 07:29:54;;;;;;;3.30;2.80;;;21.10;56.30;;;;;;5089929;28;20436;-69
2023/12/17 07:32:20;;;;;;;3.20;2.90;;;21.10;56.30;;;;;;5089772;28;20261;-69
2023/12/17 07:34:45;;;;;;;3.53;3.23;;;21.10;56.30;;;;;;5089941;28;20174;-69
2023/12/17 07:37:11;;;;;;;2.93;2.60;;;21.10;56.40;;;;;;5089990;28;20735;-70
2023/12/17 07:39:37;;;;;;;4.30;3.13;;;21.10;56.40;;;;;;5090247;28;20174;-69
2023/12/17 07:42:03;;;;;;;3.50;3.20;;;21.10;56.40;;;;;;5090463;28;20181;-69
2023/12/17 07:44:30;;;;;;;3.90;3.20;;;21.10;56.40;;;;;;5090196;28;20201;-69
2023/12/17 07:46:56;;;;;;;3.60;3.10;;;21.10;57.00;;;;;;5090286;28;20443;-68
2023/12/17 07:49:22;;;;;;;3.10;2.70;;;21.10;56.40;;;;;;5090154;28;20411;-68
2023/12/17 07:51:48;;;;;;;3.07;2.77;;;21.10;57.00;;;;;;5090153;28;20414;-68
2023/12/17 07:54:14;;;;;;;3.00;2.47;;;21.10;56.40;;;;;;5090089;28;20178;-68
2023/12/17 07:56:39;;;;;;;3.73;2.70;;;21.10;56.40;;;;;;5092932;28;20442;-68
2023/12/17 07:59:05;;;;;;;2.70;2.50;;;21.10;56.40;;;;;;5094002;28;20217;-69
2023/12/17 08:01:32;;;;;;;3.60;2.77;;;21.10;56.50;;;;;;5093877;28;20316;-69
2023/12/17 08:03:57;;;;;;;2.90;2.63;;;21.10;56.40;;;;;;5093988;28;20204;-68
2023/12/17 08:06:26;;;;;;;3.40;2.37;;;21.10;56.50;;;;;;5093909;28;20427;-68
2023/12/17 08:08:53;;;;;;;3.80;2.80;;;21.10;56.50;;;;;;5093669;28;20234;-69
2023/12/17 08:11:19;;;;;;;2.73;2.27;;;21.10;56.40;;;;;;5092537;28;20448;-68
2023/12/17 08:13:45;;;;;;;3.30;2.73;;;21.10;56.50;;;;;;5093900;28;20472;-69
2023/12/17 08:16:11;;;;;;;6.33;3.20;;;21.10;56.40;;;;;;5093533;28;20485;-69
2023/12/17 08:18:36;;;;;;;2.20;2.00;;;21.10;56.40;;;;;;5093449;28;20186;-69
2023/12/17 08:21:03;;;;;;;3.20;2.70;;;21.20;56.50;;;;;;5093565;28;20688;-69
2023/12/17 08:23:28;;;;;;;2.90;2.33;;;21.10;56.40;;;;;;5093540;28;20201;-68
2023/12/17 08:25:54;;;;;;;3.20;2.13;;;21.20;56.50;;;;;;5093598;28;20568;-69
2023/12/17 08:28:21;;;;;;;3.33;2.57;;;21.20;56.50;;;;;;5093339;28;20750;-69
2023/12/17 08:30:47;;;;;;;2.73;2.50;;;21.20;56.50;;;;;;5093455;28;20427;-68
2023/12/17 08:33:13;;;;;;;3.80;2.80;;;21.20;56.50;;;;;;5093336;28;20859;-69
2023/12/17 08:35:39;;;;;;;3.00;2.37;;;21.20;56.50;;;;;;5093103;28;20411;-68
2023/12/17 08:38:06;;;;;;;3.77;2.83;;;21.20;56.50;;;;;;5093235;28;20791;-68
2023/12/17 08:40:37;;;;;;;2.40;2.20;;;21.20;56.40;;;;;;5093481;28;20415;-68
2023/12/17 08:43:09;;;;;;;4.17;2.90;;;21.20;56.50;;;;;;5091883;28;20512;-69
2023/12/17 08:45:35;;;;;;;3.37;2.67;;;21.20;56.40;;;;;;5093405;28;20392;-69
2023/12/17 08:48:02;;;;;;;4.63;2.93;;;21.30;56.50;;;;;;5093550;28;20461;-68
2023/12/17 08:50:28;;;;;;;3.23;2.90;;;21.20;56.40;;;;;;5093585;28;20411;-69
2023/12/17 08:52:54;;;;;;;2.87;2.27;;;21.30;56.50;;;;;;5093329;28;20408;-67
2023/12/17 08:55:19;;;;;;;2.70;2.43;;;21.30;56.50;;;;;;5093441;28;20488;-68
2023/12/17 08:57:46;;;;;;;2.43;2.23;;;21.30;56.50;;;;;;5093439;28;20193;-69
2023/12/17 09:00:12;;;;;;;3.17;2.87;;;21.30;56.50;;;;;;5093571;28;20273;-69
2023/12/17 09:02:38;;;;;;;2.63;2.33;;;21.30;56.50;;;;;;5092906;28;20580;-68
2023/12/17 09:05:04;;;;;;;2.50;2.30;;;21.30;56.50;;;;;;5093048;28;20452;-69
2023/12/17 09:07:30;;;;;;;4.03;2.53;;;21.30;56.50;;;;;;5092694;28;20572;-68
2023/12/17 09:09:55;;;;;;;3.00;2.50;;;21.30;56.50;;;;;;5092958;28;20419;-68
2023/12/17 09:12:21;;;;;;;4.33;3.20;;;21.30;56.50;;;;;;5093007;28;20178;-68
2023/12/17 09:14:47;;;;;;;3.37;2.73;;;21.30;56.50;;;;;;5092969;28;20703;-68
2023/12/17 09:17:12;;;;;;;3.30;2.57;;;21.30;56.60;;;;;;5092486;28;20193;-68
2023/12/17 09:19:38;;;;;;;2.90;2.37;;;21.30;56.60;;;;;;5092918;28;20395;-68
2023/12/17 09:22:04;;;;;;;2.87;2.43;;;21.30;56.60;;;;;;5092634;28;20178;-68
2023/12/17 09:24:30;;;;;;;4.23;2.53;;;21.30;56.60;;;;;;5092625;28;20459;-68
2023/12/17 09:26:55;;;;;;;3.33;2.83;;;21.30;56.60;;;;;;5092591;28;20198;-68
2023/12/17 09:29:21;;;;;;;3.20;2.30;;;21.30;56.60;;;;;;5092304;28;20679;-68
2023/12/17 09:31:47;;;;;;;2.60;2.40;;;21.30;56.60;;;;;;5092367;28;20314;-68
2023/12/17 09:34:14;;;;;;;3.10;2.40;;;21.30;56.60;;;;;;5092314;28;20177;-69
2023/12/17 09:36:40;;;;;;;2.60;2.20;;;21.30;56.60;;;;;;5092300;28;20454;-69
2023/12/17 09:39:06;;;;;;;4.47;2.50;;;21.30;56.60;;;;;;5092277;28;20427;-68
2023/12/17 09:41:32;;;;;;;2.47;2.20;;;21.30;56.60;;;;;;5092502;28;20422;-68
2023/12/17 09:43:58;;;;;;;3.23;2.20;;;21.30;56.60;;;;;;5092514;28;20455;-68
2023/12/17 09:46:24;;;;;;;3.00;2.33;;;21.30;56.60;;;;;;5092034;28;20246;-69
2023/12/17 09:48:50;;;;;;;3.40;3.10;;;21.30;56.60;;;;;;5092997;28;20597;-69
2023/12/17 09:51:16;;;;;;;3.30;2.50;;;21.30;56.60;;;;;;5090994;28;20428;-69
2023/12/17 09:53:42;;;;;;;3.07;2.67;;;21.30;56.60;;;;;;5092287;28;20173;-69
2023/12/17 09:56:08;;;;;;;2.83;2.53;;;21.30;56.60;;;;;;5092275;28;20444;-69
2023/12/17 09:58:34;;;;;;;2.40;2.20;;;21.30;56.50;;;;;;5092164;28;20666;-68
2023/12/17 10:00:59;;;;;;;3.17;2.00;;;21.30;56.50;;;;;;5092327;28;20420;-68
2023/12/17 10:03:25;;;;;;;3.20;2.33;;;21.30;56.50;;;;;;5091987;28;20277;-68
2023/12/17 10:05:52;;;;;;;3.87;2.40;;;21.30;56.50;;;;;;5091784;28;20261;-69
2023/12/17 10:08:22;;;;;;;4.30;2.60;;;21.30;56.50;;;;;;5092133;28;20412;-69
2023/12/17 10:10:48;;;;;;;4.23;3.10;;;21.40;56.60;;;;;;5092075;28;20388;-68
2023/12/17 10:13:18;;;;;;;2.40;2.20;;;21.40;56.60;;;;;;5091798;28;20416;-69
2023/12/17 10:15:49;;;;;;;3.90;2.33;;;21.30;56.60;;;;;;5091554;28;20174;-69
2023/12/17 10:18:16;;;;;;;4.57;2.87;;;21.40;56.70;;;;;;5090797;28;20438;-68
2023/12/17 10:20:43;;;;;;;3.17;2.10;;;21.40;56.70;;;;;;5089973;28;20874;-69
2023/12/17 10:23:08;;;;;;;3.60;2.43;;;21.40;56.80;;;;;;5091458;28;20459;-69
2023/12/17 10:25:34;;;;;;;2.97;2.67;;;21.40;56.70;;;;;;5091426;28;20419;-68
2023/12/17 10:28:00;;;;;;;2.80;2.37;;;21.30;56.60;;;;;;5091667;28;20173;-68
2023/12/17 10:30:30;;;;;;;2.47;1.97;;;21.30;56.60;;;;;;5091243;28;20178;-68
2023/12/17 10:32:57;;;;;;;2.73;2.53;;;21.40;56.70;;;;;;5091247;28;20447;-68
2023/12/17 10:35:27;;;;;;;2.50;1.97;;;21.40;56.70;;;;;;5091294;28;20408;-67
2023/12/17 10:37:55;;;;;;;3.00;2.43;;;21.40;56.70;;;;;;5089936;28;20968;-69
2023/12/17 10:40:21;;;;;;;3.20;2.83;;;21.40;56.70;;;;;;5091347;28;20785;-68
2023/12/17 10:42:48;;;;;;;5.80;1.90;;;21.40;56.70;;;;;;5089958;28;20534;-69
2023/12/17 10:45:16;;;;;;;2.73;2.47;;;21.40;56.70;;;;;;5091211;28;20460;-69
2023/12/17 10:47:44;;;;;;;4.40;2.30;;;21.40;56.70;;;;;;5091005;28;20436;-68
2023/12/17 10:50:10;;;;;;;4.03;2.60;;;21.40;56.70;;;;;;5091047;28;20412;-68
2023/12/17 10:52:39;;;;;;;3.33;2.67;;;21.40;56.70;;;;;;5090905;28;20420;-69
2023/12/17 10:55:05;;;;;;;2.80;2.43;;;21.40;56.70;;;;;;5090640;28;20419;-68
2023/12/17 10:57:34;;;;;;;2.30;2.10;;;21.40;56.70;;;;;;5090851;28;20434;-68
2023/12/17 11:00:02;;;;;;;3.03;2.20;;;21.40;56.70;;;;;;5090735;28;20424;-68
2023/12/17 11:02:29;;;;;;;2.83;2.07;;;21.40;56.70;;;;;;5091132;28;20780;-69
2023/12/17 11:04:57;;;;;;;2.90;1.83;;;21.40;56.70;;;;;;5091183;28;20832;-68
2023/12/17 11:07:23;;;;;;;2.30;2.07;;;21.40;56.70;;;;;;5090136;28;20430;-69
2023/12/17 11:09:49;;;;;;;4.07;2.27;;;21.40;56.70;;;;;;5088425;28;20424;-68
2023/12/17 11:12:18;;;;;;;2.30;2.10;;;21.40;56.70;;;;;;5090308;28;20408;-68
2023/12/17 11:14:44;;;;;;;2.90;2.50;;;21.40;56.70;;;;;;5089569;28;20268;-67
2023/12/17 11:17:16;;;;;;;7.63;2.50;;;21.40;56.70;;;;;;5088883;28;20442;-68
2023/12/17 11:19:53;;;;;;;3.77;2.50;;;21.40;56.70;;;;;;5090311;28;20916;-69
2023/12/17 11:22:22;;;;;;;3.30;2.20;;;21.40;56.70;;;;;;5091007;28;20442;-68
2023/12/17 11:24:48;;;;;;;2.33;2.10;;;21.40;56.70;;;;;;5090609;28;20419;-68
2023/12/17 11:27:13;;;;;;;3.97;2.63;;;21.40;56.70;;;;;;5090357;28;20459;-69
2023/12/17 11:29:39;;;;;;;6.87;4.43;;;21.30;56.40;;;;;;5090413;28;20948;-68
2023/12/17 11:32:09;;;;;;;4.43;4.00;;;21.30;56.00;;;;;;5093074;28;20188;-68
2023/12/17 11:34:36;;;;;;;3.80;3.07;;;21.40;56.00;;;;;;5094614;28;20181;-69
2023/12/17 11:37:02;;;;;;;3.73;3.10;;;21.40;56.20;;;;;;5094617;28;20436;-67
2023/12/17 11:39:28;;;;;;;3.03;2.63;;;21.30;56.10;;;;;;5095226;28;20422;-68
2023/12/17 11:41:54;;;;;;;3.53;2.70;;;21.30;56.10;;;;;;5094445;28;20677;-69
2023/12/17 11:44:20;;;;;;;3.23;2.67;;;21.30;56.30;;;;;;5094474;28;20458;-69
2023/12/17 11:46:49;;;;;;;3.30;2.70;;;21.30;56.30;;;;;;5094477;28;20690;-68
2023/12/17 11:49:25;;;;;;;3.47;2.67;;;21.30;56.40;;;;;;5094547;28;20415;-68
2023/12/17 11:51:51;;;;;;;2.60;2.40;;;21.30;56.40;;;;;;5094331;28;20407;-69
2023/12/17 11:54:21;;;;;;;4.20;2.10;;;21.30;56.50;;;;;;5094490;28;20407;-68
2023/12/17 11:56:50;;;;;;;2.70;2.50;;;21.30;56.50;;;;;;5094425;28;20435;-68
2023/12/17 11:59:30;;;;;;;4.47;2.50;;;21.30;56.50;;;;;;5094311;28;20498;-68
2023/12/17 12:01:55;;;;;;;3.57;2.00;;;21.30;56.60;;;;;;5095200;28;20403;-68
2023/12/17 12:04:21;;;;;;;3.30;2.43;;;21.30;56.60;;;;;;5094340;28;20484;-69
2023/12/17 12:06:52;;;;;;;3.80;2.73;;;21.30;56.60;;;;;;5094229;28;20664;-68
2023/12/17 12:09:19;;;;;;;2.57;2.37;;;21.30;56.50;;;;;;5094620;28;20510;-70
2023/12/17 12:11:44;;;;;;;3.50;2.20;;;21.30;56.60;;;;;;5094376;28;20412;-69
2023/12/17 12:14:10;;;;;;;2.97;2.10;;;21.40;56.60;;;;;;5094176;28;20779;-69
2023/12/17 12:16:40;;;;;;;2.53;2.10;;;21.40;56.60;;;;;;5093993;28;20284;-69
2023/12/17 12:19:05;;;;;;;4.23;2.47;;;21.40;56.60;;;;;;5093766;28;20447;-68
2023/12/17 12:21:32;;;;;;;3.00;2.30;;;21.40;56.60;;;;;;5093875;28;20461;-69
2023/12/17 12:24:01;;;;;;;3.43;2.37;;;21.40;56.60;;;;;;5093724;28;20254;-69
2023/12/17 12:26:26;;;;;;;4.00;2.80;;;21.40;56.60;;;;;;5093795;28;20568;-69
2023/12/17 12:29:04;;;;;;;3.40;2.70;;;21.40;56.60;;;;;;5093669;28;20506;-68
2023/12/17 12:31:30;;;;;;;4.33;2.67;;;21.40;56.60;;;;;;5093761;28;20150;-69
2023/12/17 12:33:59;;;;;;;4.37;2.77;;;21.40;56.60;;;;;;5092513;28;20447;-69
2023/12/17 12:36:25;;;;;;;2.50;2.20;;;21.40;56.60;;;;;;5093329;28;20435;-69
2023/12/17 12:39:02;;;;;;;3.40;2.47;;;21.40;56.60;;;;;;5093551;28;20468;-68
2023/12/17 12:41:29;;;;;;;2.33;2.13;;;21.40;56.60;;;;;;5092830;28;20408;-69
2023/12/17 12:43:55;;;;;;;2.63;2.40;;;21.40;56.60;;;;;;5093523;28;20815;-69